Latest Weather Forecast - Sunday 22nd November 2020 (12 pm)

Forecast Period: 

 12 Noon 22nd November 2020 to 6 pm 22nd November 2020 

Synopsis:

A ridge pattern is the dominant feature.

Forecast:

Fair to occasionally cloudy and breezy at times with isolated showers.      

Weather Warning/ Advisory:

None

Winds:

 Generally from the east at 15 km/h – 35 km/h(9 – 22 mph)

Sea Conditions:  Moderate to rough in open water; swells (1.5 –   3.0 m)

Marine Warning:

Small craft operators and sea bathers should be prepared for above normal sea swells .

Upcoming Tides:
 High: **** ****
 Low:

****

06:57 pm 

Aviation WX

[Source: ADDS]
METAR
TVSA 251700Z 07012KT 040V120 9999 BKN020 28/22 Q1014 =
TVSA 251700Z 2518/2618 08012KT 9999 SCT020
TAF
TVSA 251700Z 2518/2618 08012KT 9999 SCT020 =
SR / SS: 10:31 / 22:02 UTC (Sunrise Sunset 2021-01-25)